VVPQ

Phu Quoc Airport

Duong Dong, Vietnam
TAF VVPQ 191700Z 1918/2018 31008KT 9999 SCT015 TEMPO 1918/2001 3000 TSRA BKN013 SCT015CB BKN040 TEMPO 2006/2012 1500 +TSRA BKN013 SCT015CB
Issued Valid From Valid To
Sep-19 @ 17:00 UTC
(6 hours ago)
Sep-19 @ 18:00 UTC
(5 hours ago)
Sep-20 @ 18:00 UTC
(in 19 hours)
Sep-19 @ 18:00 to Sep-20 @ 18:00
TAF VVPQ 191700Z 1918/2018 31008KT 9999 SCT015
Wind Visibility Clouds
310° at 8 knots 10,000+ meters
  • Scattered at 1,500' AGL
Temporary Sep-19 @ 18:00 to Sep-20 @ 01:00
TEMPO 1918/2001 3000 TSRA BKN013 SCT015CB BKN040
Visibility Clouds Conditions
2,993 meters
  • Broken at 1,300' AGL
  • Scattered at 1,500' AGL
  • Broken at 4,000' AGL
  • Thunderstorm
  • Rain
Temporary Sep-20 @ 06:00 to Sep-20 @ 12:00
TEMPO 2006/2012 1500 +TSRA BKN013 SCT015CB
Visibility Clouds Conditions
1,497 meters
  • Broken at 1,300' AGL
  • Scattered at 1,500' AGL
  • Heavy Thunderstorm
  • Heavy Rain
TAF VVPQ 191700Z 1918/2018 31008KT 9999 SCT015 TEMPO 1918/2001 3000 TSRA BKN013 SCT015CB BKN040 TEMPO 2006/2012 1500 +TSRA BKN013 SCT015CB
Issued Sep-19 @ 17:00 UTC
(6 hours ago)
Valid From Sep-19 @ 18:00 UTC
(5 hours ago)
Valid To Sep-20 @ 18:00 UTC
(in 19 hours)
Sep-19 @ 18:00 - Sep-20 @ 18:00
Wind Visibility
310° at 8 knots 10,000+ meters
Clouds
  • Scattered at 1,500' AGL
Temporary Sep-19 @ 18:00 - Sep-20 @ 01:00
Clouds
  • Broken at 1,300' AGL
  • Scattered at 1,500' AGL
  • Broken at 4,000' AGL
Conditions
  • Thunderstorm
  • Rain
Temporary Sep-20 @ 06:00 - Sep-20 @ 12:00
Clouds
  • Broken at 1,300' AGL
  • Scattered at 1,500' AGL
Conditions
  • Heavy Thunderstorm
  • Heavy Rain